Belle Haven, CT

12:37 PM EST on December 09, 2016 (GMT -0500)
KCTGREEN16 | | Change Station

Elev 50 ft 41.01 °N, 73.62 °W | Updated 5 seconds ago

Mostly Cloudy
Mostly Cloudy
37.6 °F
Feels Like 27 °F
N
20.5
Wind Variable Wind from NW
Gusts 20.5 mph

Today
High -- | Low -- °F
--% Chance of Precip.
Yesterday
High -- | Low -- °F
Precip. -- in
Pressure 30.08 in
Visibility 10.0 miles
Clouds Few 4300 ft
Mostly Cloudy 5500 ft
Windchill 27 °F
Dew Point 21 °F
Humidity 47%
Rainfall 0.00 in
Snow Depth Not available.
7:08 AM 4:26 PM
Waxing Gibbous, 75% visible
METAR KHPN 091656Z 29020G28KT 10SM FEW043 BKN055 03/M08 A3006 RMK AO2 PK WND 29028/1656 SLP185 T00281083
Pressure 30.08 in
Visibility 10.0 miles
Clouds Few 4300 ft
Mostly Cloudy 5500 ft
Windchill 27 °F
Dew Point 21 °F
Humidity 47%
Rainfall 0.00 in
Snow Depth Not available.
7:08 AM 4:26 PM
Waxing Gibbous, 75% visible
METAR KHPN 091656Z 29020G28KT 10SM FEW043 BKN055 03/M08 A3006 RMK AO2 PK WND 29028/1656 SLP185 T00281083

10-Day Weather Forecast

Almanac

Astronomy

Dec. 09, 2016 Rise Set
Actual Time
Civil Twilight
Nautical Twilight
Astronomical Twilight
Moon
Length of Visible Light
Length of Day
Tomorrow will be .
, % of the Moon is Illuminated

Today's Extremes

State Highs State Lows

Community

WunderPhotos

Upload Photos

1,956,462 photos uploaded!

WunderBlog® & News

Nearby

Air Quality

  Air Quality AQ Index Pollutant
Not available.

Snow Depth

Station Depth Elevation

Earthquake Activity

City Distance Mag. Time & Date
Minimum magnitude displayed is 2.5.

Coastal Water Temperatures

Place Temperature

Stations

Nearby Weather Stations

Station Location Temp. Windchill Dew Point Humidity Wind Precip. Elev Updated Type
                   

Watches & Warnings

There are currently no watches in effect.